createdAt,value
2022-12-28T00:01:38.622Z,1.07
2022-12-28T00:05:01.112Z,1.14
2022-12-28T00:08:09.345Z,1.11
2022-12-28T00:11:28.513Z,1.02
2022-12-28T00:18:22.424Z,1.21
2022-12-28T00:21:44.402Z,1.03
2022-12-28T00:25:09.458Z,0.37
2022-12-28T00:28:25.459Z,0.97
2022-12-28T00:31:34.490Z,1.15
2022-12-28T00:35:30.426Z,0.87
2022-12-28T00:38:40.206Z,1.21
2022-12-28T00:41:53.487Z,1.09
2022-12-28T00:45:14.375Z,1.12
2022-12-28T00:48:23.712Z,0.54
2022-12-28T00:51:38.517Z,0.49
2022-12-28T00:58:17.388Z,0.70
2022-12-28T01:01:21.550Z,0.70
2022-12-28T01:05:08.413Z,0.66
2022-12-28T01:08:10.137Z,0.62
2022-12-28T01:11:28.418Z,0.34
2022-12-28T01:15:21.396Z,0.61
2022-12-28T01:18:30.042Z,0.55
2022-12-28T01:21:51.470Z,0.55
2022-12-28T01:25:07.776Z,0.52
2022-12-28T01:28:23.552Z,0.48
2022-12-28T01:31:39.475Z,0.16
2022-12-28T01:35:29.457Z,0.17
2022-12-28T01:38:44.486Z,0.43
2022-12-28T01:41:53.327Z,0.43
2022-12-28T01:45:25.391Z,0.38
2022-12-28T01:48:27.437Z,0.37
2022-12-28T01:51:56.424Z,0.26
2022-12-28T01:55:20.563Z,0.31
2022-12-28T01:58:37.448Z,-0.02
2022-12-28T02:01:52.544Z,-0.11
2022-12-28T02:05:17.873Z,0.24
2022-12-28T02:09:04.455Z,-0.32
2022-12-28T02:12:23.446Z,0.27
2022-12-28T02:15:31.440Z,0.27
2022-12-28T02:18:42.921Z,0.23
2022-12-28T02:22:29.452Z,0.22
2022-12-28T02:26:06.397Z,0.22
2022-12-28T02:29:23.896Z,0.27
2022-12-28T02:32:52.376Z,0.29
2022-12-28T02:35:59.325Z,0.16
2022-12-28T02:39:21.412Z,0.17
2022-12-28T02:42:32.475Z,0.22
2022-12-28T02:45:45.974Z,0.19
2022-12-28T02:48:54.440Z,0.18
2022-12-28T02:52:22.348Z,0.19
2022-12-28T02:55:50.424Z,0.27
2022-12-28T02:59:25.452Z,-0.05
2022-12-28T03:03:00.340Z,0.29
2022-12-28T03:06:40.499Z,0.21
2022-12-28T03:10:02.420Z,0.22
2022-12-28T03:13:19.454Z,-0.02
2022-12-28T03:16:59.448Z,0.32
2022-12-28T03:20:28.487Z,0.33
2022-12-28T03:28:05.504Z,0.37
2022-12-28T03:31:19.296Z,-0.18
2022-12-28T03:35:19.523Z,0.27
2022-12-28T03:38:42.472Z,-0.32
2022-12-28T03:42:04.434Z,0.17
2022-12-28T03:45:45.360Z,0.13
2022-12-28T03:48:59.271Z,-0.26
2022-12-28T03:52:16.454Z,-0.01
2022-12-28T03:55:18.555Z,-0.44
2022-12-28T03:58:33.507Z,-0.11
2022-12-28T04:01:43.535Z,0.00
2022-12-28T04:05:09.621Z,-0.08
2022-12-28T04:08:18.416Z,-0.14
2022-12-28T04:11:27.242Z,-0.57
2022-12-28T04:18:15.552Z,-0.40
2022-12-28T04:21:17.509Z,-0.77
2022-12-28T04:25:09.495Z,-0.46
2022-12-28T04:28:11.384Z,-0.41
2022-12-28T04:31:26.550Z,-0.39
2022-12-28T04:35:23.455Z,-0.85
2022-12-28T04:38:30.604Z,-0.80
2022-12-28T04:41:45.481Z,-0.62
2022-12-28T04:45:21.562Z,-0.68
2022-12-28T04:48:31.581Z,-0.69
2022-12-28T04:51:49.077Z,-0.63
2022-12-28T04:55:32.665Z,-0.74
2022-12-28T04:58:44.422Z,-0.85
2022-12-28T05:01:59.528Z,-0.61
2022-12-28T05:05:10.376Z,-1.08
2022-12-28T05:08:25.379Z,-0.88
2022-12-28T05:11:43.423Z,-0.92
2022-12-28T05:15:07.773Z,-0.93
2022-12-28T05:18:16.607Z,-0.88
2022-12-28T05:21:38.518Z,-0.85
2022-12-28T05:25:14.496Z,-0.76
2022-12-28T05:28:23.954Z,-0.78
2022-12-28T05:31:38.547Z,-0.95
2022-12-28T05:35:08.427Z,-0.86
2022-12-28T05:38:23.492Z,-0.98
2022-12-28T05:41:27.659Z,-0.95
2022-12-28T05:45:17.456Z,-1.02
2022-12-28T05:48:32.406Z,-1.08
2022-12-28T05:51:40.436Z,-1.08
2022-12-28T05:55:22.462Z,-1.04
2022-12-28T05:58:24.476Z,-1.29
2022-12-28T06:01:42.548Z,-1.15
2022-12-28T06:05:08.800Z,-1.26
2022-12-28T06:08:23.540Z,-1.32
2022-12-28T06:11:34.438Z,-1.32
2022-12-28T06:15:22.433Z,-1.36
2022-12-28T06:18:34.497Z,-1.35
2022-12-28T06:21:49.907Z,-1.78
2022-12-28T06:25:16.435Z,-1.45
2022-12-28T06:28:18.253Z,-1.46
2022-12-28T06:31:35.540Z,-1.43
2022-12-28T06:35:10.008Z,-1.44
2022-12-28T06:38:24.405Z,-1.98
2022-12-28T06:41:35.642Z,-1.47
2022-12-28T06:45:07.396Z,-1.48
2022-12-28T06:48:15.481Z,-1.51
2022-12-28T06:51:27.609Z,-1.46
2022-12-28T06:58:34.451Z,-1.40
2022-12-28T07:01:43.242Z,-1.50
2022-12-28T07:09:09.511Z,-1.24
2022-12-28T07:12:18.211Z,-1.76
2022-12-28T07:15:32.641Z,-1.62
2022-12-28T07:18:41.356Z,-1.21
2022-12-28T07:21:49.552Z,-1.21
2022-12-28T07:29:39.588Z,-1.01
2022-12-28T07:32:47.471Z,-0.93
2022-12-28T07:36:05.453Z,-0.91
2022-12-28T07:39:07.308Z,-0.86
2022-12-28T07:42:22.627Z,-0.90
2022-12-28T07:45:39.703Z,-1.27
2022-12-28T07:48:48.796Z,-0.80
2022-12-28T07:51:57.441Z,-0.65
2022-12-28T07:58:51.677Z,-0.51
2022-12-28T08:02:06.469Z,-0.41
2022-12-28T08:05:08.562Z,-0.51
2022-12-28T08:08:23.482Z,-0.19
2022-12-28T08:11:34.460Z,-0.11
2022-12-28T08:27:09.716Z,0.42
2022-12-28T08:30:26.469Z,0.56
2022-12-28T08:34:15.583Z,0.35
2022-12-28T08:42:05.575Z,0.41
2022-12-28T08:45:29.560Z,1.17
2022-12-28T08:53:19.513Z,1.46
2022-12-28T08:57:03.467Z,1.35
2022-12-28T09:00:06.477Z,1.25
2022-12-28T10:19:15.025Z,3.83
2022-12-28T10:40:32.436Z,5.24
2022-12-28T10:48:16.067Z,6.01
2022-12-28T10:51:36.585Z,5.70
2022-12-28T10:55:35.251Z,5.54
2022-12-28T10:58:52.582Z,5.37
2022-12-28T11:05:57.626Z,4.76
2022-12-28T11:09:26.552Z,4.91
2022-12-28T11:12:44.267Z,5.09
2022-12-28T11:16:00.539Z,5.23
2022-12-28T11:19:10.870Z,5.17
2022-12-28T11:22:37.118Z,5.27
2022-12-28T11:25:54.513Z,5.33
2022-12-28T11:29:02.131Z,5.48
2022-12-28T11:32:32.564Z,5.50
2022-12-28T11:35:45.454Z,5.47
2022-12-28T11:39:10.354Z,5.50
2022-12-28T11:42:52.253Z,5.48
2022-12-28T11:46:11.502Z,4.90
2022-12-28T11:49:36.311Z,5.49
2022-12-28T11:52:55.928Z,5.49
2022-12-28T11:56:14.549Z,5.07
2022-12-28T11:59:27.682Z,5.35
2022-12-28T12:02:46.477Z,5.43
2022-12-28T12:06:01.546Z,5.45
2022-12-28T12:09:49.600Z,5.42
2022-12-28T12:12:59.560Z,5.08
2022-12-28T12:16:27.587Z,5.37
2022-12-28T12:19:41.668Z,5.17
2022-12-28T12:23:12.450Z,5.68
2022-12-28T12:26:30.357Z,5.86
2022-12-28T12:38:03.504Z,5.78
2022-12-28T12:41:29.701Z,5.83
2022-12-28T12:45:29.720Z,5.85
2022-12-28T12:49:04.423Z,5.47
2022-12-28T12:52:48.589Z,5.93
2022-12-28T12:56:06.026Z,5.96
2022-12-28T12:59:39.666Z,5.57
2022-12-28T13:03:15.567Z,6.04
2022-12-28T13:06:37.496Z,6.03
2022-12-28T13:10:00.785Z,6.04
2022-12-28T13:16:45.571Z,5.90
2022-12-28T13:20:10.924Z,5.99
2022-12-28T13:27:25.492Z,6.04
2022-12-28T13:30:46.163Z,5.56
2022-12-28T13:42:08.556Z,5.70
2022-12-28T13:45:27.638Z,5.41
2022-12-28T13:48:31.838Z,5.60
2022-12-28T13:51:53.489Z,5.59
2022-12-28T13:55:35.754Z,5.62
2022-12-28T13:59:07.545Z,5.25
2022-12-28T14:02:15.704Z,5.66
2022-12-28T14:05:35.648Z,5.42
2022-12-28T14:08:43.767Z,5.07
2022-12-28T14:12:02.580Z,5.56
2022-12-28T14:15:49.783Z,5.53
2022-12-28T14:19:01.081Z,5.51
2022-12-28T14:22:38.759Z,5.44
2022-12-28T14:25:45.308Z,5.41
2022-12-28T14:29:06.554Z,5.38
2022-12-28T14:36:09.443Z,5.31
2022-12-28T14:39:35.649Z,5.26
2022-12-28T14:42:43.830Z,5.26
2022-12-28T14:46:41.611Z,5.24
2022-12-28T14:49:58.458Z,5.12
2022-12-28T14:57:08.583Z,5.19
2022-12-28T15:00:35.547Z,4.90
2022-12-28T15:07:43.479Z,5.11
2022-12-28T15:11:35.803Z,4.92
2022-12-28T15:15:24.654Z,4.79
2022-12-28T15:18:41.252Z,4.57
2022-12-28T15:21:58.902Z,4.58
2022-12-28T15:25:11.879Z,4.36
2022-12-28T15:28:27.580Z,4.43
2022-12-28T15:31:37.198Z,4.23
2022-12-28T15:35:09.257Z,4.35
2022-12-28T15:38:28.380Z,4.11
2022-12-28T15:41:54.461Z,4.19
2022-12-28T15:49:30.516Z,4.45
2022-12-28T15:52:41.667Z,4.39
2022-12-28T15:56:08.736Z,4.44
2022-12-28T16:02:57.550Z,4.33
2022-12-28T16:06:09.400Z,4.37
2022-12-28T16:09:24.587Z,4.33
2022-12-28T16:12:38.436Z,4.28
2022-12-28T16:16:16.806Z,3.91
2022-12-28T16:19:25.620Z,3.72
2022-12-28T16:22:44.274Z,3.74
2022-12-28T16:26:01.948Z,3.83
2022-12-28T16:29:10.592Z,3.90
2022-12-28T16:32:19.542Z,4.20
2022-12-28T16:35:35.006Z,4.20
2022-12-28T16:38:52.616Z,4.20
2022-12-28T16:42:00.504Z,4.17
2022-12-28T16:45:17.523Z,4.22
2022-12-28T16:48:19.871Z,3.86
2022-12-28T16:51:41.485Z,3.97
2022-12-28T16:59:10.637Z,4.12
2022-12-28T17:02:31.089Z,4.03
2022-12-28T17:10:40.111Z,3.55
2022-12-28T17:18:04.315Z,3.52
2022-12-28T17:21:20.625Z,3.43
2022-12-28T17:28:13.009Z,3.14
2022-12-28T17:31:27.632Z,2.69
2022-12-28T17:35:12.554Z,3.03
2022-12-28T17:38:14.356Z,3.10
2022-12-28T17:41:32.589Z,3.09
2022-12-28T17:45:37.605Z,3.03
2022-12-28T17:48:39.649Z,3.02
2022-12-28T17:51:54.619Z,2.76
2022-12-28T17:55:22.498Z,3.02
2022-12-28T17:58:31.443Z,2.99
2022-12-28T18:01:41.647Z,3.03
2022-12-28T18:05:12.669Z,2.96
2022-12-28T18:08:29.564Z,2.92
2022-12-28T18:11:31.439Z,2.96
2022-12-28T18:15:16.499Z,2.74
2022-12-28T18:19:09.555Z,2.21
2022-12-28T18:26:29.530Z,2.82
2022-12-28T18:29:38.309Z,2.75
2022-12-28T18:32:52.517Z,2.75
2022-12-28T18:40:10.595Z,2.62
